sensor_id;sensor_type;location;lat;lon;timestamp;P1;durP1;ratioP1;P2;durP2;ratioP2
58017;SDS011;43810;50.860;19.226;2023-07-28T00:02:13;5.15;;;3.20;;
58017;SDS011;43810;50.860;19.226;2023-07-28T00:04:39;5.38;;;3.60;;
58017;SDS011;43810;50.860;19.226;2023-07-28T00:07:05;8.95;;;4.25;;
58017;SDS011;43810;50.860;19.226;2023-07-28T00:09:31;7.05;;;3.72;;
58017;SDS011;43810;50.860;19.226;2023-07-28T00:11:57;6.95;;;3.78;;
58017;SDS011;43810;50.860;19.226;2023-07-28T00:14:24;7.85;;;3.92;;
58017;SDS011;43810;50.860;19.226;2023-07-28T00:16:53;9.98;;;4.80;;
58017;SDS011;43810;50.860;19.226;2023-07-28T00:19:21;7.97;;;3.85;;
58017;SDS011;43810;50.860;19.226;2023-07-28T00:21:47;6.13;;;3.00;;
58017;SDS011;43810;50.860;19.226;2023-07-28T00:24:14;6.55;;;3.67;;
58017;SDS011;43810;50.860;19.226;2023-07-28T00:26:40;7.45;;;3.67;;
58017;SDS011;43810;50.860;19.226;2023-07-28T00:29:06;9.27;;;4.47;;
58017;SDS011;43810;50.860;19.226;2023-07-28T00:31:33;11.05;;;5.28;;
58017;SDS011;43810;50.860;19.226;2023-07-28T00:33:59;13.75;;;5.70;;
58017;SDS011;43810;50.860;19.226;2023-07-28T00:36:25;15.07;;;6.07;;
58017;SDS011;43810;50.860;19.226;2023-07-28T00:38:51;12.50;;;6.40;;
58017;SDS011;43810;50.860;19.226;2023-07-28T00:41:17;19.25;;;6.70;;
58017;SDS011;43810;50.860;19.226;2023-07-28T00:43:42;11.13;;;6.40;;
58017;SDS011;43810;50.860;19.226;2023-07-28T00:46:09;12.50;;;6.05;;
58017;SDS011;43810;50.860;19.226;2023-07-28T00:48:36;17.17;;;7.40;;
58017;SDS011;43810;50.860;19.226;2023-07-28T00:51:02;19.58;;;7.10;;
58017;SDS011;43810;50.860;19.226;2023-07-28T00:53:29;22.83;;;9.55;;
58017;SDS011;43810;50.860;19.226;2023-07-28T00:55:55;25.00;;;9.02;;
58017;SDS011;43810;50.860;19.226;2023-07-28T00:58:21;22.73;;;7.60;;
58017;SDS011;43810;50.860;19.226;2023-07-28T01:00:47;15.40;;;7.07;;
58017;SDS011;43810;50.860;19.226;2023-07-28T01:03:14;16.23;;;6.07;;
58017;SDS011;43810;50.860;19.226;2023-07-28T01:08:16;12.15;;;5.55;;
58017;SDS011;43810;50.860;19.226;2023-07-28T01:10:48;11.02;;;5.20;;
58017;SDS011;43810;50.860;19.226;2023-07-28T01:13:15;12.68;;;4.68;;
58017;SDS011;43810;50.860;19.226;2023-07-28T01:15:40;16.48;;;5.25;;
58017;SDS011;43810;50.860;19.226;2023-07-28T01:18:06;12.32;;;4.47;;
58017;SDS011;43810;50.860;19.226;2023-07-28T01:20:32;9.77;;;4.57;;
58017;SDS011;43810;50.860;19.226;2023-07-28T01:28:34;10.05;;;4.07;;
58017;SDS011;43810;50.860;19.226;2023-07-28T01:31:04;12.02;;;5.30;;
58017;SDS011;43810;50.860;19.226;2023-07-28T01:33:32;17.27;;;6.22;;
58017;SDS011;43810;50.860;19.226;2023-07-28T01:35:58;15.95;;;6.32;;
58017;SDS011;43810;50.860;19.226;2023-07-28T01:38:25;21.52;;;7.70;;
58017;SDS011;43810;50.860;19.226;2023-07-28T01:40:51;19.17;;;7.53;;
58017;SDS011;43810;50.860;19.226;2023-07-28T01:43:17;14.90;;;5.45;;
58017;SDS011;43810;50.860;19.226;2023-07-28T01:45:42;10.18;;;4.97;;
58017;SDS011;43810;50.860;19.226;2023-07-28T01:48:08;14.13;;;4.90;;
58017;SDS011;43810;50.860;19.226;2023-07-28T01:50:37;11.50;;;4.20;;
58017;SDS011;43810;50.860;19.226;2023-07-28T01:53:04;9.98;;;4.57;;
58017;SDS011;43810;50.860;19.226;2023-07-28T01:55:30;12.27;;;4.13;;
58017;SDS011;43810;50.860;19.226;2023-07-28T01:57:57;8.32;;;4.40;;
58017;SDS011;43810;50.860;19.226;2023-07-28T02:00:25;14.32;;;5.10;;
58017;SDS011;43810;50.860;19.226;2023-07-28T02:02:51;13.57;;;4.85;;
58017;SDS011;43810;50.860;19.226;2023-07-28T02:05:18;10.30;;;4.45;;
58017;SDS011;43810;50.860;19.226;2023-07-28T02:07:45;12.32;;;4.90;;
58017;SDS011;43810;50.860;19.226;2023-07-28T02:10:12;12.50;;;4.57;;
58017;SDS011;43810;50.860;19.226;2023-07-28T02:12:38;11.50;;;5.00;;
58017;SDS011;43810;50.860;19.226;2023-07-28T02:15:05;11.70;;;4.75;;
58017;SDS011;43810;50.860;19.226;2023-07-28T02:17:32;10.63;;;5.15;;
58017;SDS011;43810;50.860;19.226;2023-07-28T02:19:58;7.85;;;3.92;;
58017;SDS011;43810;50.860;19.226;2023-07-28T02:22:24;12.35;;;3.90;;
58017;SDS011;43810;50.860;19.226;2023-07-28T02:24:50;9.25;;;4.13;;
58017;SDS011;43810;50.860;19.226;2023-07-28T02:27:16;6.80;;;3.35;;
58017;SDS011;43810;50.860;19.226;2023-07-28T02:29:42;10.38;;;3.65;;
58017;SDS011;43810;50.860;19.226;2023-07-28T02:32:09;10.10;;;3.65;;
58017;SDS011;43810;50.860;19.226;2023-07-28T02:34:34;6.82;;;3.83;;
58017;SDS011;43810;50.860;19.226;2023-07-28T02:37:00;7.93;;;3.80;;
58017;SDS011;43810;50.860;19.226;2023-07-28T02:39:26;9.23;;;3.92;;
58017;SDS011;43810;50.860;19.226;2023-07-28T02:41:52;6.80;;;3.60;;
58017;SDS011;43810;50.860;19.226;2023-07-28T02:44:18;9.95;;;4.05;;
58017;SDS011;43810;50.860;19.226;2023-07-28T02:46:44;10.43;;;4.85;;
58017;SDS011;43810;50.860;19.226;2023-07-28T02:49:11;14.07;;;5.05;;
58017;SDS011;43810;50.860;19.226;2023-07-28T02:51:37;10.70;;;3.90;;
58017;SDS011;43810;50.860;19.226;2023-07-28T02:54:04;10.45;;;4.70;;
58017;SDS011;43810;50.860;19.226;2023-07-28T02:56:30;13.20;;;4.60;;
58017;SDS011;43810;50.860;19.226;2023-07-28T02:58:59;8.00;;;3.90;;
58017;SDS011;43810;50.860;19.226;2023-07-28T03:01:26;7.82;;;3.75;;
58017;SDS011;43810;50.860;19.226;2023-07-28T03:03:55;5.97;;;3.30;;
58017;SDS011;43810;50.860;19.226;2023-07-28T03:06:21;7.93;;;2.83;;
58017;SDS011;43810;50.860;19.226;2023-07-28T03:08:47;9.13;;;3.53;;
58017;SDS011;43810;50.860;19.226;2023-07-28T03:11:13;5.10;;;2.90;;
58017;SDS011;43810;50.860;19.226;2023-07-28T03:13:38;6.80;;;2.83;;
58017;SDS011;43810;50.860;19.226;2023-07-28T03:16:04;6.38;;;3.08;;
58017;SDS011;43810;50.860;19.226;2023-07-28T03:18:30;4.03;;;2.47;;
58017;SDS011;43810;50.860;19.226;2023-07-28T03:20:56;5.75;;;3.05;;
58017;SDS011;43810;50.860;19.226;2023-07-28T03:23:21;4.80;;;2.50;;
58017;SDS011;43810;50.860;19.226;2023-07-28T03:25:47;6.88;;;2.40;;
58017;SDS011;43810;50.860;19.226;2023-07-28T03:28:13;4.43;;;2.35;;
58017;SDS011;43810;50.860;19.226;2023-07-28T03:30:39;4.78;;;2.22;;
58017;SDS011;43810;50.860;19.226;2023-07-28T03:33:05;5.85;;;2.25;;
58017;SDS011;43810;50.860;19.226;2023-07-28T03:35:31;3.65;;;2.10;;
58017;SDS011;43810;50.860;19.226;2023-07-28T03:37:56;4.00;;;2.10;;
58017;SDS011;43810;50.860;19.226;2023-07-28T03:40:22;3.35;;;2.00;;
58017;SDS011;43810;50.860;19.226;2023-07-28T03:42:48;1.90;;;1.55;;
58017;SDS011;43810;50.860;19.226;2023-07-28T03:45:17;4.95;;;2.28;;
58017;SDS011;43810;50.860;19.226;2023-07-28T03:47:43;1.73;;;1.50;;
58017;SDS011;43810;50.860;19.226;2023-07-28T03:50:09;4.05;;;1.92;;
58017;SDS011;43810;50.860;19.226;2023-07-28T03:52:35;1.92;;;1.55;;
58017;SDS011;43810;50.860;19.226;2023-07-28T03:55:01;2.78;;;1.90;;
58017;SDS011;43810;50.860;19.226;2023-07-28T03:57:27;4.32;;;2.08;;
58017;SDS011;43810;50.860;19.226;2023-07-28T03:59:52;2.38;;;2.13;;
58017;SDS011;43810;50.860;19.226;2023-07-28T04:02:18;3.03;;;1.90;;
58017;SDS011;43810;50.860;19.226;2023-07-28T04:04:44;2.20;;;1.88;;
58017;SDS011;43810;50.860;19.226;2023-07-28T04:07:10;3.60;;;1.83;;
58017;SDS011;43810;50.860;19.226;2023-07-28T04:09:36;2.25;;;1.58;;
58017;SDS011;43810;50.860;19.226;2023-07-28T04:12:01;4.03;;;2.35;;
58017;SDS011;43810;50.860;19.226;2023-07-28T04:14:27;3.88;;;1.88;;
58017;SDS011;43810;50.860;19.226;2023-07-28T04:16:53;3.45;;;2.13;;
58017;SDS011;43810;50.860;19.226;2023-07-28T04:19:19;3.03;;;1.67;;
58017;SDS011;43810;50.860;19.226;2023-07-28T04:21:45;2.75;;;2.20;;
58017;SDS011;43810;50.860;19.226;2023-07-28T04:24:11;3.47;;;1.92;;
58017;SDS011;43810;50.860;19.226;2023-07-28T04:26:37;3.63;;;2.00;;
58017;SDS011;43810;50.860;19.226;2023-07-28T04:29:03;3.80;;;1.90;;
58017;SDS011;43810;50.860;19.226;2023-07-28T04:31:29;2.53;;;1.52;;
58017;SDS011;43810;50.860;19.226;2023-07-28T04:33:55;1.92;;;1.70;;
58017;SDS011;43810;50.860;19.226;2023-07-28T04:36:20;3.55;;;2.03;;
58017;SDS011;43810;50.860;19.226;2023-07-28T04:38:46;3.13;;;2.00;;
58017;SDS011;43810;50.860;19.226;2023-07-28T04:41:12;3.90;;;1.73;;
58017;SDS011;43810;50.860;19.226;2023-07-28T04:43:38;2.55;;;1.65;;
58017;SDS011;43810;50.860;19.226;2023-07-28T04:46:04;3.65;;;2.08;;
58017;SDS011;43810;50.860;19.226;2023-07-28T04:48:30;3.50;;;2.25;;
58017;SDS011;43810;50.860;19.226;2023-07-28T04:50:55;2.95;;;1.77;;
58017;SDS011;43810;50.860;19.226;2023-07-28T04:53:21;1.42;;;1.33;;
58017;SDS011;43810;50.860;19.226;2023-07-28T04:55:52;4.93;;;2.00;;
58017;SDS011;43810;50.860;19.226;2023-07-28T04:58:18;3.97;;;1.80;;
58017;SDS011;43810;50.860;19.226;2023-07-28T05:00:44;4.47;;;2.30;;
58017;SDS011;43810;50.860;19.226;2023-07-28T05:03:11;5.15;;;1.92;;
58017;SDS011;43810;50.860;19.226;2023-07-28T05:05:37;4.38;;;2.20;;
58017;SDS011;43810;50.860;19.226;2023-07-28T05:08:03;3.72;;;2.20;;
58017;SDS011;43810;50.860;19.226;2023-07-28T05:10:28;4.80;;;2.10;;
58017;SDS011;43810;50.860;19.226;2023-07-28T05:12:54;2.13;;;1.85;;
58017;SDS011;43810;50.860;19.226;2023-07-28T05:15:21;6.13;;;2.15;;
58017;SDS011;43810;50.860;19.226;2023-07-28T05:17:49;2.65;;;2.15;;
58017;SDS011;43810;50.860;19.226;2023-07-28T05:20:15;2.65;;;1.92;;
58017;SDS011;43810;50.860;19.226;2023-07-28T05:23:07;2.08;;;1.85;;
58017;SDS011;43810;50.860;19.226;2023-07-28T05:25:33;3.42;;;1.85;;
58017;SDS011;43810;50.860;19.226;2023-07-28T05:27:59;2.17;;;1.88;;
58017;SDS011;43810;50.860;19.226;2023-07-28T05:30:24;2.00;;;1.75;;
58017;SDS011;43810;50.860;19.226;2023-07-28T05:32:54;3.22;;;1.95;;
58017;SDS011;43810;50.860;19.226;2023-07-28T05:35:20;2.30;;;1.77;;
58017;SDS011;43810;50.860;19.226;2023-07-28T05:37:46;4.18;;;2.17;;
58017;SDS011;43810;50.860;19.226;2023-07-28T05:40:12;3.20;;;2.10;;
58017;SDS011;43810;50.860;19.226;2023-07-28T05:42:38;3.47;;;2.17;;
58017;SDS011;43810;50.860;19.226;2023-07-28T05:45:04;2.85;;;1.77;;
58017;SDS011;43810;50.860;19.226;2023-07-28T05:47:31;2.97;;;2.10;;
58017;SDS011;43810;50.860;19.226;2023-07-28T05:50:00;3.63;;;2.45;;
58017;SDS011;43810;50.860;19.226;2023-07-28T05:52:27;3.78;;;1.90;;
58017;SDS011;43810;50.860;19.226;2023-07-28T05:54:53;3.90;;;2.13;;
58017;SDS011;43810;50.860;19.226;2023-07-28T05:57:19;3.30;;;2.03;;
58017;SDS011;43810;50.860;19.226;2023-07-28T05:59:46;3.42;;;2.30;;
58017;SDS011;43810;50.860;19.226;2023-07-28T06:02:15;4.60;;;2.40;;
58017;SDS011;43810;50.860;19.226;2023-07-28T06:04:40;2.45;;;1.98;;
58017;SDS011;43810;50.860;19.226;2023-07-28T06:07:06;4.40;;;2.10;;
58017;SDS011;43810;50.860;19.226;2023-07-28T06:09:32;3.40;;;1.77;;
58017;SDS011;43810;50.860;19.226;2023-07-28T06:11:58;4.45;;;2.08;;
58017;SDS011;43810;50.860;19.226;2023-07-28T06:14:24;3.53;;;2.00;;
58017;SDS011;43810;50.860;19.226;2023-07-28T06:16:50;2.40;;;1.85;;
58017;SDS011;43810;50.860;19.226;2023-07-28T06:19:17;3.63;;;1.90;;
58017;SDS011;43810;50.860;19.226;2023-07-28T06:21:52;2.63;;;1.83;;
58017;SDS011;43810;50.860;19.226;2023-07-28T06:24:18;3.15;;;2.17;;
58017;SDS011;43810;50.860;19.226;2023-07-28T06:26:47;4.93;;;2.10;;
58017;SDS011;43810;50.860;19.226;2023-07-28T06:29:13;2.58;;;1.90;;
58017;SDS011;43810;50.860;19.226;2023-07-28T06:31:39;4.60;;;2.08;;
58017;SDS011;43810;50.860;19.226;2023-07-28T06:34:06;5.43;;;2.30;;
58017;SDS011;43810;50.860;19.226;2023-07-28T06:36:32;3.20;;;2.03;;
58017;SDS011;43810;50.860;19.226;2023-07-28T06:38:58;4.78;;;2.08;;
58017;SDS011;43810;50.860;19.226;2023-07-28T06:41:24;6.18;;;2.47;;
58017;SDS011;43810;50.860;19.226;2023-07-28T06:43:50;4.07;;;2.20;;
58017;SDS011;43810;50.860;19.226;2023-07-28T06:46:16;6.57;;;2.33;;
58017;SDS011;43810;50.860;19.226;2023-07-28T06:48:42;3.35;;;2.55;;
58017;SDS011;43810;50.860;19.226;2023-07-28T06:51:08;4.43;;;2.53;;
58017;SDS011;43810;50.860;19.226;2023-07-28T06:53:34;3.10;;;2.20;;
58017;SDS011;43810;50.860;19.226;2023-07-28T06:56:00;2.60;;;2.10;;
58017;SDS011;43810;50.860;19.226;2023-07-28T06:58:26;3.50;;;2.30;;
58017;SDS011;43810;50.860;19.226;2023-07-28T07:00:52;3.72;;;2.22;;
58017;SDS011;43810;50.860;19.226;2023-07-28T07:03:21;4.38;;;2.70;;
58017;SDS011;43810;50.860;19.226;2023-07-28T07:05:48;6.93;;;2.33;;
58017;SDS011;43810;50.860;19.226;2023-07-28T07:08:14;3.38;;;2.22;;
58017;SDS011;43810;50.860;19.226;2023-07-28T07:10:40;2.72;;;2.20;;
58017;SDS011;43810;50.860;19.226;2023-07-28T07:13:05;2.92;;;2.22;;
58017;SDS011;43810;50.860;19.226;2023-07-28T07:15:33;3.47;;;2.50;;
58017;SDS011;43810;50.860;19.226;2023-07-28T07:18:00;3.13;;;2.20;;
58017;SDS011;43810;50.860;19.226;2023-07-28T07:20:26;3.47;;;2.38;;
58017;SDS011;43810;50.860;19.226;2023-07-28T07:22:52;2.78;;;2.00;;
58017;SDS011;43810;50.860;19.226;2023-07-28T07:25:18;4.40;;;2.25;;
58017;SDS011;43810;50.860;19.226;2023-07-28T07:27:43;4.65;;;2.30;;
58017;SDS011;43810;50.860;19.226;2023-07-28T07:30:10;5.60;;;2.28;;
58017;SDS011;43810;50.860;19.226;2023-07-28T07:32:36;4.35;;;2.42;;
58017;SDS011;43810;50.860;19.226;2023-07-28T07:35:02;5.38;;;2.60;;
58017;SDS011;43810;50.860;19.226;2023-07-28T07:37:28;5.40;;;2.63;;
58017;SDS011;43810;50.860;19.226;2023-07-28T07:39:57;3.08;;;2.17;;
58017;SDS011;43810;50.860;19.226;2023-07-28T07:42:23;4.00;;;2.28;;
58017;SDS011;43810;50.860;19.226;2023-07-28T07:44:49;3.72;;;2.42;;
58017;SDS011;43810;50.860;19.226;2023-07-28T07:47:15;8.32;;;2.75;;
58017;SDS011;43810;50.860;19.226;2023-07-28T07:49:41;3.53;;;2.17;;
58017;SDS011;43810;50.860;19.226;2023-07-28T07:52:08;4.15;;;2.55;;
58017;SDS011;43810;50.860;19.226;2023-07-28T07:54:37;5.28;;;2.28;;
58017;SDS011;43810;50.860;19.226;2023-07-28T07:57:03;3.22;;;2.15;;
58017;SDS011;43810;50.860;19.226;2023-07-28T07:59:29;2.83;;;2.35;;
58017;SDS011;43810;50.860;19.226;2023-07-28T08:01:57;3.78;;;1.90;;
58017;SDS011;43810;50.860;19.226;2023-07-28T08:04:26;2.55;;;2.33;;
58017;SDS011;43810;50.860;19.226;2023-07-28T08:06:53;4.13;;;1.90;;
58017;SDS011;43810;50.860;19.226;2023-07-28T08:09:19;1.95;;;1.73;;
58017;SDS011;43810;50.860;19.226;2023-07-28T08:11:45;3.40;;;3.05;;
58017;SDS011;43810;50.860;19.226;2023-07-28T08:14:11;3.78;;;2.28;;
58017;SDS011;43810;50.860;19.226;2023-07-28T08:16:36;2.08;;;1.88;;
58017;SDS011;43810;50.860;19.226;2023-07-28T08:19:02;3.40;;;1.90;;
58017;SDS011;43810;50.860;19.226;2023-07-28T08:21:28;3.92;;;2.25;;
58017;SDS011;43810;50.860;19.226;2023-07-28T08:23:54;4.30;;;2.22;;
58017;SDS011;43810;50.860;19.226;2023-07-28T08:26:19;2.53;;;1.73;;
58017;SDS011;43810;50.860;19.226;2023-07-28T08:28:45;2.13;;;1.80;;
58017;SDS011;43810;50.860;19.226;2023-07-28T08:31:11;4.57;;;2.00;;
58017;SDS011;43810;50.860;19.226;2023-07-28T08:33:37;2.10;;;1.40;;
58017;SDS011;43810;50.860;19.226;2023-07-28T08:36:03;3.60;;;2.22;;
58017;SDS011;43810;50.860;19.226;2023-07-28T08:38:29;4.53;;;1.60;;
58017;SDS011;43810;50.860;19.226;2023-07-28T08:40:56;3.53;;;1.58;;
58017;SDS011;43810;50.860;19.226;2023-07-28T08:43:24;3.13;;;1.60;;
58017;SDS011;43810;50.860;19.226;2023-07-28T08:45:50;2.22;;;1.58;;
58017;SDS011;43810;50.860;19.226;2023-07-28T08:48:19;1.35;;;1.25;;
58017;SDS011;43810;50.860;19.226;2023-07-28T08:50:45;2.20;;;1.40;;
58017;SDS011;43810;50.860;19.226;2023-07-28T08:53:11;1.65;;;1.30;;
58017;SDS011;43810;50.860;19.226;2023-07-28T08:55:36;2.35;;;1.27;;
58017;SDS011;43810;50.860;19.226;2023-07-28T08:58:15;2.05;;;1.80;;
58017;SDS011;43810;50.860;19.226;2023-07-28T09:00:42;1.80;;;1.70;;
58017;SDS011;43810;50.860;19.226;2023-07-28T09:03:09;1.40;;;1.30;;
58017;SDS011;43810;50.860;19.226;2023-07-28T09:05:35;1.50;;;1.40;;
58017;SDS011;43810;50.860;19.226;2023-07-28T09:08:01;2.97;;;1.30;;
58017;SDS011;43810;50.860;19.226;2023-07-28T09:10:39;1.88;;;1.25;;
58017;SDS011;43810;50.860;19.226;2023-07-28T09:13:10;1.50;;;1.30;;
58017;SDS011;43810;50.860;19.226;2023-07-28T09:15:37;2.03;;;1.40;;
58017;SDS011;43810;50.860;19.226;2023-07-28T09:18:04;1.73;;;1.48;;
58017;SDS011;43810;50.860;19.226;2023-07-28T09:20:33;1.27;;;1.10;;
58017;SDS011;43810;50.860;19.226;2023-07-28T09:23:01;1.85;;;1.27;;
58017;SDS011;43810;50.860;19.226;2023-07-28T09:25:28;2.15;;;1.38;;
58017;SDS011;43810;50.860;19.226;2023-07-28T09:27:54;1.38;;;1.20;;
58017;SDS011;43810;50.860;19.226;2023-07-28T09:30:21;1.27;;;1.17;;
58017;SDS011;43810;50.860;19.226;2023-07-28T09:32:49;2.17;;;1.33;;
58017;SDS011;43810;50.860;19.226;2023-07-28T09:35:16;2.47;;;1.55;;
58017;SDS011;43810;50.860;19.226;2023-07-28T09:37:43;1.83;;;1.20;;
58017;SDS011;43810;50.860;19.226;2023-07-28T09:40:15;1.30;;;1.20;;
58017;SDS011;43810;50.860;19.226;2023-07-28T09:42:43;1.42;;;1.25;;
58017;SDS011;43810;50.860;19.226;2023-07-28T09:45:14;2.47;;;1.50;;
58017;SDS011;43810;50.860;19.226;2023-07-28T09:47:45;2.25;;;1.65;;
58017;SDS011;43810;50.860;19.226;2023-07-28T09:50:13;3.90;;;1.83;;
58017;SDS011;43810;50.860;19.226;2023-07-28T09:52:47;3.40;;;1.65;;
58017;SDS011;43810;50.860;19.226;2023-07-28T09:55:18;2.28;;;1.65;;
58017;SDS011;43810;50.860;19.226;2023-07-28T09:57:46;2.85;;;2.20;;
58017;SDS011;43810;50.860;19.226;2023-07-28T10:00:16;2.95;;;2.00;;
58017;SDS011;43810;50.860;19.226;2023-07-28T10:02:44;2.25;;;1.88;;
58017;SDS011;43810;50.860;19.226;2023-07-28T10:05:10;4.95;;;2.33;;
58017;SDS011;43810;50.860;19.226;2023-07-28T10:07:38;3.75;;;2.38;;
58017;SDS011;43810;50.860;19.226;2023-07-28T10:10:06;2.95;;;2.22;;
58017;SDS011;43810;50.860;19.226;2023-07-28T10:12:54;2.58;;;2.15;;
58017;SDS011;43810;50.860;19.226;2023-07-28T10:15:27;2.63;;;2.05;;
58017;SDS011;43810;50.860;19.226;2023-07-28T10:17:55;2.28;;;1.77;;
58017;SDS011;43810;50.860;19.226;2023-07-28T10:20:32;2.47;;;2.13;;
58017;SDS011;43810;50.860;19.226;2023-07-28T10:23:04;2.47;;;1.92;;
58017;SDS011;43810;50.860;19.226;2023-07-28T10:25:55;4.18;;;2.20;;
58017;SDS011;43810;50.860;19.226;2023-07-28T10:31:06;2.40;;;2.20;;
58017;SDS011;43810;50.860;19.226;2023-07-28T10:36:11;3.03;;;2.42;;
58017;SDS011;43810;50.860;19.226;2023-07-28T10:38:38;4.50;;;2.70;;
58017;SDS011;43810;50.860;19.226;2023-07-28T10:41:14;3.75;;;2.47;;
58017;SDS011;43810;50.860;19.226;2023-07-28T10:43:44;3.38;;;2.50;;
58017;SDS011;43810;50.860;19.226;2023-07-28T10:46:14;4.57;;;2.50;;
58017;SDS011;43810;50.860;19.226;2023-07-28T10:48:42;2.35;;;2.05;;
58017;SDS011;43810;50.860;19.226;2023-07-28T10:51:10;2.60;;;2.40;;
58017;SDS011;43810;50.860;19.226;2023-07-28T10:53:37;4.53;;;2.15;;
58017;SDS011;43810;50.860;19.226;2023-07-28T10:56:03;2.45;;;2.10;;
58017;SDS011;43810;50.860;19.226;2023-07-28T10:58:33;2.35;;;1.98;;
58017;SDS011;43810;50.860;19.226;2023-07-28T11:01:00;2.37;;;2.17;;
58017;SDS011;43810;50.860;19.226;2023-07-28T11:03:27;2.00;;;1.83;;
58017;SDS011;43810;50.860;19.226;2023-07-28T11:05:54;2.25;;;2.00;;
58017;SDS011;43810;50.860;19.226;2023-07-28T11:08:22;2.45;;;1.80;;
58017;SDS011;43810;50.860;19.226;2023-07-28T11:10:48;1.83;;;1.65;;
58017;SDS011;43810;50.860;19.226;2023-07-28T11:13:14;2.35;;;1.70;;
58017;SDS011;43810;50.860;19.226;2023-07-28T11:15:40;2.35;;;1.60;;
58017;SDS011;43810;50.860;19.226;2023-07-28T11:18:06;2.70;;;1.73;;
58017;SDS011;43810;50.860;19.226;2023-07-28T11:20:32;5.97;;;3.22;;
58017;SDS011;43810;50.860;19.226;2023-07-28T11:22:59;3.10;;;2.45;;
58017;SDS011;43810;50.860;19.226;2023-07-28T11:25:29;3.38;;;2.08;;
58017;SDS011;43810;50.860;19.226;2023-07-28T11:27:57;4.53;;;1.70;;
58017;SDS011;43810;50.860;19.226;2023-07-28T11:30:23;2.30;;;2.00;;
58017;SDS011;43810;50.860;19.226;2023-07-28T11:32:50;2.47;;;2.00;;
58017;SDS011;43810;50.860;19.226;2023-07-28T11:35:19;3.65;;;1.88;;
58017;SDS011;43810;50.860;19.226;2023-07-28T11:37:51;3.35;;;1.77;;
58017;SDS011;43810;50.860;19.226;2023-07-28T11:40:20;4.68;;;2.78;;
58017;SDS011;43810;50.860;19.226;2023-07-28T11:42:47;2.53;;;2.00;;
58017;SDS011;43810;50.860;19.226;2023-07-28T11:45:16;2.40;;;2.20;;
58017;SDS011;43810;50.860;19.226;2023-07-28T11:48:00;3.63;;;2.03;;
58017;SDS011;43810;50.860;19.226;2023-07-28T11:50:29;2.30;;;2.10;;
58017;SDS011;43810;50.860;19.226;2023-07-28T11:52:59;2.65;;;2.40;;
58017;SDS011;43810;50.860;19.226;2023-07-28T11:55:25;3.75;;;2.38;;
58017;SDS011;43810;50.860;19.226;2023-07-28T11:57:52;3.08;;;2.17;;
58017;SDS011;43810;50.860;19.226;2023-07-28T12:00:18;3.70;;;2.13;;
58017;SDS011;43810;50.860;19.226;2023-07-28T12:02:59;2.83;;;2.28;;
58017;SDS011;43810;50.860;19.226;2023-07-28T12:05:26;3.10;;;2.22;;
58017;SDS011;43810;50.860;19.226;2023-07-28T12:07:54;2.80;;;2.45;;
58017;SDS011;43810;50.860;19.226;2023-07-28T12:10:19;4.13;;;2.08;;
58017;SDS011;43810;50.860;19.226;2023-07-28T12:12:46;2.63;;;2.20;;
58017;SDS011;43810;50.860;19.226;2023-07-28T12:15:28;3.42;;;2.00;;
58017;SDS011;43810;50.860;19.226;2023-07-28T12:18:06;3.40;;;2.10;;
58017;SDS011;43810;50.860;19.226;2023-07-28T12:20:38;2.75;;;2.13;;
58017;SDS011;43810;50.860;19.226;2023-07-28T12:23:06;2.22;;;2.03;;
58017;SDS011;43810;50.860;19.226;2023-07-28T12:25:34;2.08;;;1.73;;
58017;SDS011;43810;50.860;19.226;2023-07-28T12:28:02;2.03;;;1.83;;
58017;SDS011;43810;50.860;19.226;2023-07-28T12:30:28;2.67;;;1.85;;
58017;SDS011;43810;50.860;19.226;2023-07-28T12:32:54;1.60;;;1.50;;
58017;SDS011;43810;50.860;19.226;2023-07-28T12:35:21;2.05;;;1.50;;
58017;SDS011;43810;50.860;19.226;2023-07-28T12:37:49;4.70;;;1.92;;
58017;SDS011;43810;50.860;19.226;2023-07-28T12:40:17;2.50;;;1.70;;
58017;SDS011;43810;50.860;19.226;2023-07-28T12:42:45;2.22;;;1.20;;
58017;SDS011;43810;50.860;19.226;2023-07-28T12:45:12;2.03;;;1.60;;
58017;SDS011;43810;50.860;19.226;2023-07-28T12:47:39;2.28;;;1.52;;
58017;SDS011;43810;50.860;19.226;2023-07-28T12:50:05;1.50;;;1.40;;
58017;SDS011;43810;50.860;19.226;2023-07-28T12:52:32;2.63;;;1.40;;
58017;SDS011;43810;50.860;19.226;2023-07-28T12:54:57;1.40;;;1.30;;
58017;SDS011;43810;50.860;19.226;2023-07-28T12:57:24;2.92;;;1.40;;
58017;SDS011;43810;50.860;19.226;2023-07-28T12:59:50;3.33;;;1.40;;
58017;SDS011;43810;50.860;19.226;2023-07-28T13:02:16;3.92;;;1.15;;
58017;SDS011;43810;50.860;19.226;2023-07-28T13:04:42;2.92;;;1.40;;
58017;SDS011;43810;50.860;19.226;2023-07-28T13:07:08;2.25;;;1.52;;
58017;SDS011;43810;50.860;19.226;2023-07-28T13:09:34;1.73;;;1.30;;
58017;SDS011;43810;50.860;19.226;2023-07-28T13:12:00;1.35;;;1.25;;
58017;SDS011;43810;50.860;19.226;2023-07-28T13:14:26;4.82;;;1.60;;
58017;SDS011;43810;50.860;19.226;2023-07-28T13:16:52;2.92;;;1.27;;
58017;SDS011;43810;50.860;19.226;2023-07-28T13:19:18;1.52;;;1.33;;
58017;SDS011;43810;50.860;19.226;2023-07-28T13:21:44;1.30;;;1.20;;
58017;SDS011;43810;50.860;19.226;2023-07-28T13:24:10;1.25;;;1.15;;
58017;SDS011;43810;50.860;19.226;2023-07-28T13:26:36;2.55;;;1.35;;
58017;SDS011;43810;50.860;19.226;2023-07-28T13:29:01;1.50;;;1.40;;
58017;SDS011;43810;50.860;19.226;2023-07-28T13:31:28;2.20;;;1.40;;
58017;SDS011;43810;50.860;19.226;2023-07-28T13:33:54;1.63;;;1.25;;
58017;SDS011;43810;50.860;19.226;2023-07-28T13:36:20;2.38;;;1.38;;
58017;SDS011;43810;50.860;19.226;2023-07-28T13:38:45;1.73;;;1.05;;
58017;SDS011;43810;50.860;19.226;2023-07-28T13:41:11;1.35;;;1.20;;
58017;SDS011;43810;50.860;19.226;2023-07-28T13:43:37;1.95;;;1.13;;
58017;SDS011;43810;50.860;19.226;2023-07-28T13:46:03;1.30;;;1.20;;
58017;SDS011;43810;50.860;19.226;2023-07-28T13:48:30;1.55;;;1.27;;
58017;SDS011;43810;50.860;19.226;2023-07-28T13:50:56;2.55;;;1.48;;
58017;SDS011;43810;50.860;19.226;2023-07-28T13:53:22;1.73;;;1.17;;
58017;SDS011;43810;50.860;19.226;2023-07-28T13:55:49;1.20;;;1.10;;
58017;SDS011;43810;50.860;19.226;2023-07-28T13:58:15;1.40;;;0.90;;
58017;SDS011;43810;50.860;19.226;2023-07-28T14:00:41;1.35;;;1.25;;
58017;SDS011;43810;50.860;19.226;2023-07-28T14:03:07;1.90;;;1.20;;
58017;SDS011;43810;50.860;19.226;2023-07-28T14:05:33;1.35;;;1.05;;
58017;SDS011;43810;50.860;19.226;2023-07-28T14:07:59;3.72;;;1.42;;
58017;SDS011;43810;50.860;19.226;2023-07-28T14:10:25;2.35;;;1.55;;
58017;SDS011;43810;50.860;19.226;2023-07-28T14:12:51;3.83;;;1.50;;
58017;SDS011;43810;50.860;19.226;2023-07-28T14:15:17;2.10;;;1.50;;
58017;SDS011;43810;50.860;19.226;2023-07-28T14:17:43;1.50;;;1.40;;
58017;SDS011;43810;50.860;19.226;2023-07-28T14:20:09;1.70;;;1.30;;
58017;SDS011;43810;50.860;19.226;2023-07-28T14:22:35;8.63;;;3.42;;
58017;SDS011;43810;50.860;19.226;2023-07-28T14:25:01;1.20;;;1.10;;
58017;SDS011;43810;50.860;19.226;2023-07-28T14:27:26;2.28;;;1.10;;
58017;SDS011;43810;50.860;19.226;2023-07-28T14:29:52;2.47;;;1.08;;
58017;SDS011;43810;50.860;19.226;2023-07-28T14:32:18;1.05;;;0.95;;
58017;SDS011;43810;50.860;19.226;2023-07-28T14:34:44;0.80;;;0.80;;
58017;SDS011;43810;50.860;19.226;2023-07-28T14:37:09;1.10;;;1.00;;
58017;SDS011;43810;50.860;19.226;2023-07-28T14:39:36;1.02;;;0.98;;
58017;SDS011;43810;50.860;19.226;2023-07-28T14:42:02;0.77;;;0.70;;
58017;SDS011;43810;50.860;19.226;2023-07-28T14:44:29;4.72;;;0.82;;
58017;SDS011;43810;50.860;19.226;2023-07-28T14:46:54;2.45;;;1.00;;